4°C Temp
0°C Dewpoint
% Humidity
Temperature
24 KM/H
15 MPH
13 KTS
300°
West North
West

Wind Speed
Partly Cloudy
Conditions
Pressure 1003.92 (hPa) - 29.65 (in)
Visibility 6.2 (mi) - 10.0 (km)

Current Conditions
EHLW
Location 6km (3.2mi)
Metar :EHLW 272055Z AUTO 30013KT 260V350 9999 FEW015CB 04/00 Q1004 BLU
Thu 27th February 21:55 pm

Airport
  Metar Aviation API Data Provided by https://www.checkwx.com/ PHP scripts by weather34.com ©2020